sensor_id;sensor_type;location;lat;lon;timestamp;pressure;altitude;pressure_sealevel;temperature;humidity
47742;BME280;33504;52.066;6.096;2022-11-11T00:02:01;102691.31;;;11.35;51.24
47742;BME280;33504;52.066;6.096;2022-11-11T00:04:28;102692.78;;;11.11;51.18
47742;BME280;33504;52.066;6.096;2022-11-11T00:06:55;102700.00;;;11.24;51.00
47742;BME280;33504;52.066;6.096;2022-11-11T00:09:22;102699.64;;;11.12;51.20
47742;BME280;33504;52.066;6.096;2022-11-11T00:11:49;102699.75;;;11.26;50.83
47742;BME280;33504;52.066;6.096;2022-11-11T00:14:16;102705.47;;;11.12;51.17
47742;BME280;33504;52.066;6.096;2022-11-11T00:16:43;102711.88;;;11.27;50.89
47742;BME280;33504;52.066;6.096;2022-11-11T00:19:10;102720.12;;;11.25;50.93
47742;BME280;33504;52.066;6.096;2022-11-11T00:21:37;102727.59;;;10.81;51.83
47742;BME280;33504;52.066;6.096;2022-11-11T00:24:07;102728.32;;;10.79;51.99
47742;BME280;33504;52.066;6.096;2022-11-11T00:26:39;102731.54;;;11.54;51.29
47742;BME280;33504;52.066;6.096;2022-11-11T00:29:07;102730.97;;;10.98;51.63
47742;BME280;33504;52.066;6.096;2022-11-11T00:31:34;102729.45;;;11.18;51.12
47742;BME280;33504;52.066;6.096;2022-11-11T00:34:01;102723.33;;;11.02;51.50
47742;BME280;33504;52.066;6.096;2022-11-11T00:36:28;102718.25;;;11.33;50.87
47742;BME280;33504;52.066;6.096;2022-11-11T00:38:56;102732.12;;;11.23;51.06
47742;BME280;33504;52.066;6.096;2022-11-11T00:41:23;102738.69;;;11.06;51.56
47742;BME280;33504;52.066;6.096;2022-11-11T00:43:50;102738.10;;;11.40;50.83
47742;BME280;33504;52.066;6.096;2022-11-11T00:46:17;102740.55;;;10.97;51.81
47742;BME280;33504;52.066;6.096;2022-11-11T00:48:45;102739.85;;;10.91;51.84
47742;BME280;33504;52.066;6.096;2022-11-11T00:51:11;102744.54;;;10.68;52.31
47742;BME280;33504;52.066;6.096;2022-11-11T00:53:39;102742.25;;;11.11;51.63
47742;BME280;33504;52.066;6.096;2022-11-11T00:56:06;102740.94;;;11.17;51.48
47742;BME280;33504;52.066;6.096;2022-11-11T00:58:33;102738.65;;;11.24;51.47
47742;BME280;33504;52.066;6.096;2022-11-11T01:01:00;102738.37;;;11.40;51.24
47742;BME280;33504;52.066;6.096;2022-11-11T01:03:27;102739.98;;;11.14;51.65
47742;BME280;33504;52.066;6.096;2022-11-11T01:05:59;102737.79;;;11.59;50.82
47742;BME280;33504;52.066;6.096;2022-11-11T01:08:26;102737.42;;;11.79;50.51
47742;BME280;33504;52.066;6.096;2022-11-11T01:10:53;102732.99;;;11.27;51.42
47742;BME280;33504;52.066;6.096;2022-11-11T01:13:22;102726.04;;;11.29;51.54
47742;BME280;33504;52.066;6.096;2022-11-11T01:15:51;102728.55;;;11.30;51.45
47742;BME280;33504;52.066;6.096;2022-11-11T01:18:20;102724.14;;;11.36;51.50
47742;BME280;33504;52.066;6.096;2022-11-11T01:20:57;102727.84;;;11.56;51.16
47742;BME280;33504;52.066;6.096;2022-11-11T01:23:24;102723.72;;;11.20;51.86
47742;BME280;33504;52.066;6.096;2022-11-11T01:25:52;102720.41;;;11.34;51.62
47742;BME280;33504;52.066;6.096;2022-11-11T01:28:19;102730.64;;;11.49;51.00
47742;BME280;33504;52.066;6.096;2022-11-11T01:30:46;102732.38;;;11.33;51.59
47742;BME280;33504;52.066;6.096;2022-11-11T01:33:13;102728.43;;;11.47;51.44
47742;BME280;33504;52.066;6.096;2022-11-11T01:35:41;102727.10;;;11.34;51.68
47742;BME280;33504;52.066;6.096;2022-11-11T01:38:08;102728.39;;;11.67;50.98
47742;BME280;33504;52.066;6.096;2022-11-11T01:40:44;102724.31;;;11.84;50.69
47742;BME280;33504;52.066;6.096;2022-11-11T01:43:19;102720.25;;;11.51;51.28
47742;BME280;33504;52.066;6.096;2022-11-11T01:45:50;102720.09;;;11.79;50.70
47742;BME280;33504;52.066;6.096;2022-11-11T01:48:20;102719.42;;;11.65;51.10
47742;BME280;33504;52.066;6.096;2022-11-11T01:50:49;102726.51;;;11.49;51.50
47742;BME280;33504;52.066;6.096;2022-11-11T01:53:16;102717.51;;;11.56;51.31
47742;BME280;33504;52.066;6.096;2022-11-11T01:55:43;102717.23;;;11.61;50.88
47742;BME280;33504;52.066;6.096;2022-11-11T01:58:13;102723.11;;;11.78;51.03
47742;BME280;33504;52.066;6.096;2022-11-11T02:00:41;102723.71;;;11.16;51.61
47742;BME280;33504;52.066;6.096;2022-11-11T02:03:09;102731.73;;;11.75;51.20
47742;BME280;33504;52.066;6.096;2022-11-11T02:05:38;102742.07;;;11.78;51.07
47742;BME280;33504;52.066;6.096;2022-11-11T02:08:08;102733.65;;;11.85;50.96
47742;BME280;33504;52.066;6.096;2022-11-11T02:10:38;102730.82;;;12.04;50.67
47742;BME280;33504;52.066;6.096;2022-11-11T02:13:12;102725.35;;;11.80;51.05
47742;BME280;33504;52.066;6.096;2022-11-11T02:15:40;102727.01;;;11.83;51.06
47742;BME280;33504;52.066;6.096;2022-11-11T02:18:07;102732.95;;;11.61;51.45
47742;BME280;33504;52.066;6.096;2022-11-11T02:20:37;102728.21;;;11.73;51.21
47742;BME280;33504;52.066;6.096;2022-11-11T02:23:08;102730.08;;;11.52;51.72
47742;BME280;33504;52.066;6.096;2022-11-11T02:25:38;102733.14;;;10.93;52.93
47742;BME280;33504;52.066;6.096;2022-11-11T02:28:08;102732.56;;;11.61;51.64
47742;BME280;33504;52.066;6.096;2022-11-11T02:30:35;102730.86;;;11.68;51.63
47742;BME280;33504;52.066;6.096;2022-11-11T02:33:03;102720.94;;;11.56;51.82
47742;BME280;33504;52.066;6.096;2022-11-11T02:35:32;102719.99;;;11.50;51.63
47742;BME280;33504;52.066;6.096;2022-11-11T02:38:01;102715.91;;;11.72;51.69
47742;BME280;33504;52.066;6.096;2022-11-11T02:40:33;102720.52;;;11.44;52.20
47742;BME280;33504;52.066;6.096;2022-11-11T02:43:02;102726.51;;;11.30;52.49
47742;BME280;33504;52.066;6.096;2022-11-11T02:45:30;102729.58;;;11.59;51.91
47742;BME280;33504;52.066;6.096;2022-11-11T02:47:57;102732.07;;;11.70;51.78
47742;BME280;33504;52.066;6.096;2022-11-11T02:50:24;102733.43;;;11.87;51.51
47742;BME280;33504;52.066;6.096;2022-11-11T02:52:51;102730.60;;;11.68;51.54
47742;BME280;33504;52.066;6.096;2022-11-11T02:55:18;102729.20;;;11.41;52.43
47742;BME280;33504;52.066;6.096;2022-11-11T02:57:45;102723.31;;;11.40;52.47
47742;BME280;33504;52.066;6.096;2022-11-11T03:00:13;102715.19;;;11.97;51.48
47742;BME280;33504;52.066;6.096;2022-11-11T03:02:41;102710.50;;;11.88;51.13
47742;BME280;33504;52.066;6.096;2022-11-11T03:05:08;102709.39;;;11.05;52.85
47742;BME280;33504;52.066;6.096;2022-11-11T03:07:35;102711.11;;;11.47;52.06
47742;BME280;33504;52.066;6.096;2022-11-11T03:10:02;102713.05;;;11.79;51.87
47742;BME280;33504;52.066;6.096;2022-11-11T03:12:29;102708.37;;;11.11;53.14
47742;BME280;33504;52.066;6.096;2022-11-11T03:14:56;102696.21;;;11.58;52.31
47742;BME280;33504;52.066;6.096;2022-11-11T03:17:23;102704.97;;;11.78;51.90
47742;BME280;33504;52.066;6.096;2022-11-11T03:19:50;102710.24;;;11.33;52.77
47742;BME280;33504;52.066;6.096;2022-11-11T03:22:18;102713.96;;;11.33;52.84
47742;BME280;33504;52.066;6.096;2022-11-11T03:24:45;102713.40;;;11.00;53.07
47742;BME280;33504;52.066;6.096;2022-11-11T03:27:12;102712.18;;;11.42;52.30
47742;BME280;33504;52.066;6.096;2022-11-11T03:29:39;102724.93;;;11.12;53.37
47742;BME280;33504;52.066;6.096;2022-11-11T03:32:07;102727.16;;;11.37;52.32
47742;BME280;33504;52.066;6.096;2022-11-11T03:34:34;102726.13;;;11.54;52.43
47742;BME280;33504;52.066;6.096;2022-11-11T03:37:03;102728.98;;;11.38;52.39
47742;BME280;33504;52.066;6.096;2022-11-11T03:39:31;102726.51;;;11.67;52.15
47742;BME280;33504;52.066;6.096;2022-11-11T03:41:57;102724.55;;;11.71;52.13
47742;BME280;33504;52.066;6.096;2022-11-11T03:44:25;102724.34;;;11.25;53.66
47742;BME280;33504;52.066;6.096;2022-11-11T03:46:51;102723.97;;;11.42;52.77
47742;BME280;33504;52.066;6.096;2022-11-11T03:49:19;102723.14;;;11.29;52.96
47742;BME280;33504;52.066;6.096;2022-11-11T03:51:45;102720.33;;;11.53;52.54
47742;BME280;33504;52.066;6.096;2022-11-11T03:54:12;102722.76;;;11.26;52.57
47742;BME280;33504;52.066;6.096;2022-11-11T03:56:40;102730.21;;;11.27;53.07
47742;BME280;33504;52.066;6.096;2022-11-11T03:59:07;102728.00;;;11.30;53.03
47742;BME280;33504;52.066;6.096;2022-11-11T04:01:34;102727.48;;;11.42;53.38
47742;BME280;33504;52.066;6.096;2022-11-11T04:04:01;102733.19;;;10.94;53.26
47742;BME280;33504;52.066;6.096;2022-11-11T04:06:28;102731.39;;;11.38;52.90
47742;BME280;33504;52.066;6.096;2022-11-11T04:08:55;102733.47;;;11.76;52.07
47742;BME280;33504;52.066;6.096;2022-11-11T04:11:24;102735.51;;;11.80;52.10
47742;BME280;33504;52.066;6.096;2022-11-11T04:13:55;102737.41;;;11.86;51.50
47742;BME280;33504;52.066;6.096;2022-11-11T04:16:22;102738.42;;;12.11;51.36
47742;BME280;33504;52.066;6.096;2022-11-11T04:18:49;102738.64;;;11.41;52.23
47742;BME280;33504;52.066;6.096;2022-11-11T04:21:17;102746.44;;;11.55;51.97
47742;BME280;33504;52.066;6.096;2022-11-11T04:23:44;102750.56;;;11.83;51.93
47742;BME280;33504;52.066;6.096;2022-11-11T04:26:11;102751.14;;;11.87;51.79
47742;BME280;33504;52.066;6.096;2022-11-11T04:28:38;102758.09;;;11.63;51.83
47742;BME280;33504;52.066;6.096;2022-11-11T04:31:05;102760.14;;;11.20;52.55
47742;BME280;33504;52.066;6.096;2022-11-11T04:33:32;102760.39;;;11.26;52.98
47742;BME280;33504;52.066;6.096;2022-11-11T04:35:59;102755.87;;;11.53;52.10
47742;BME280;33504;52.066;6.096;2022-11-11T04:38:26;102756.64;;;11.65;51.88
47742;BME280;33504;52.066;6.096;2022-11-11T04:40:53;102748.72;;;11.90;51.71
47742;BME280;33504;52.066;6.096;2022-11-11T04:43:20;102750.46;;;12.04;51.51
47742;BME280;33504;52.066;6.096;2022-11-11T04:45:47;102744.93;;;11.80;51.48
47742;BME280;33504;52.066;6.096;2022-11-11T04:48:14;102740.72;;;11.74;51.85
47742;BME280;33504;52.066;6.096;2022-11-11T04:50:43;102737.99;;;11.79;51.80
47742;BME280;33504;52.066;6.096;2022-11-11T04:53:12;102741.97;;;11.68;51.96
47742;BME280;33504;52.066;6.096;2022-11-11T04:55:41;102735.92;;;11.25;52.16
47742;BME280;33504;52.066;6.096;2022-11-11T04:58:08;102738.93;;;11.64;51.97
47742;BME280;33504;52.066;6.096;2022-11-11T05:00:35;102739.94;;;11.37;52.44
47742;BME280;33504;52.066;6.096;2022-11-11T05:03:03;102738.74;;;11.34;52.56
47742;BME280;33504;52.066;6.096;2022-11-11T05:05:31;102741.63;;;11.59;52.07
47742;BME280;33504;52.066;6.096;2022-11-11T05:07:58;102743.14;;;11.33;52.08
47742;BME280;33504;52.066;6.096;2022-11-11T05:10:25;102737.47;;;11.75;51.59
47742;BME280;33504;52.066;6.096;2022-11-11T05:12:52;102736.78;;;11.93;51.24
47742;BME280;33504;52.066;6.096;2022-11-11T05:15:19;102729.67;;;11.80;51.29
47742;BME280;33504;52.066;6.096;2022-11-11T05:17:46;102723.66;;;11.66;51.82
47742;BME280;33504;52.066;6.096;2022-11-11T05:20:13;102724.13;;;11.36;52.18
47742;BME280;33504;52.066;6.096;2022-11-11T05:22:41;102724.47;;;11.23;52.02
47742;BME280;33504;52.066;6.096;2022-11-11T05:25:08;102721.87;;;11.44;52.07
47742;BME280;33504;52.066;6.096;2022-11-11T05:27:36;102718.36;;;11.42;52.11
47742;BME280;33504;52.066;6.096;2022-11-11T05:30:04;102724.80;;;11.49;51.91
47742;BME280;33504;52.066;6.096;2022-11-11T05:32:32;102723.11;;;11.44;51.63
47742;BME280;33504;52.066;6.096;2022-11-11T05:34:59;102729.11;;;11.61;51.57
47742;BME280;33504;52.066;6.096;2022-11-11T05:37:27;102719.73;;;11.36;52.07
47742;BME280;33504;52.066;6.096;2022-11-11T05:39:53;102717.52;;;11.49;51.83
47742;BME280;33504;52.066;6.096;2022-11-11T05:42:20;102721.74;;;11.10;52.73
47742;BME280;33504;52.066;6.096;2022-11-11T05:44:47;102726.98;;;11.08;52.68
47742;BME280;33504;52.066;6.096;2022-11-11T05:47:14;102723.59;;;11.40;52.14
47742;BME280;33504;52.066;6.096;2022-11-11T05:49:41;102724.90;;;11.64;51.69
47742;BME280;33504;52.066;6.096;2022-11-11T05:52:10;102723.05;;;11.07;52.66
47742;BME280;33504;52.066;6.096;2022-11-11T05:54:37;102720.00;;;10.80;53.11
47742;BME280;33504;52.066;6.096;2022-11-11T05:57:04;102717.76;;;11.03;52.81
47742;BME280;33504;52.066;6.096;2022-11-11T05:59:31;102719.14;;;11.47;52.92
47742;BME280;33504;52.066;6.096;2022-11-11T06:01:59;102715.85;;;11.22;52.92
47742;BME280;33504;52.066;6.096;2022-11-11T06:04:26;102709.24;;;10.76;53.79
47742;BME280;33504;52.066;6.096;2022-11-11T06:06:53;102711.08;;;10.16;54.41
47742;BME280;33504;52.066;6.096;2022-11-11T06:09:20;102718.68;;;10.78;53.76
47742;BME280;33504;52.066;6.096;2022-11-11T06:11:47;102723.05;;;10.63;53.59
47742;BME280;33504;52.066;6.096;2022-11-11T06:14:15;102729.64;;;10.99;53.36
47742;BME280;33504;52.066;6.096;2022-11-11T06:16:41;102738.57;;;11.04;52.70
47742;BME280;33504;52.066;6.096;2022-11-11T06:19:09;102746.69;;;11.25;52.81
47742;BME280;33504;52.066;6.096;2022-11-11T06:21:36;102757.55;;;11.53;52.32
47742;BME280;33504;52.066;6.096;2022-11-11T06:24:04;102768.63;;;11.35;52.05
47742;BME280;33504;52.066;6.096;2022-11-11T06:26:30;102772.43;;;11.43;51.93
47742;BME280;33504;52.066;6.096;2022-11-11T06:28:58;102775.27;;;11.57;51.55
47742;BME280;33504;52.066;6.096;2022-11-11T06:31:26;102776.29;;;11.62;51.48
47742;BME280;33504;52.066;6.096;2022-11-11T06:33:53;102779.54;;;11.71;51.28
47742;BME280;33504;52.066;6.096;2022-11-11T06:36:20;102787.35;;;11.16;52.18
47742;BME280;33504;52.066;6.096;2022-11-11T06:38:47;102795.32;;;10.83;52.66
47742;BME280;33504;52.066;6.096;2022-11-11T06:41:15;102800.85;;;11.19;52.16
47742;BME280;33504;52.066;6.096;2022-11-11T06:43:42;102803.00;;;11.10;52.33
47742;BME280;33504;52.066;6.096;2022-11-11T06:46:15;102806.79;;;10.84;52.67
47742;BME280;33504;52.066;6.096;2022-11-11T06:48:43;102803.56;;;10.84;52.78
47742;BME280;33504;52.066;6.096;2022-11-11T06:51:10;102807.04;;;11.20;52.23
47742;BME280;33504;52.066;6.096;2022-11-11T06:53:38;102818.83;;;11.15;52.20
47742;BME280;33504;52.066;6.096;2022-11-11T06:56:06;102824.01;;;10.98;52.35
47742;BME280;33504;52.066;6.096;2022-11-11T06:58:34;102828.38;;;11.43;52.15
47742;BME280;33504;52.066;6.096;2022-11-11T07:01:03;102831.96;;;11.43;51.65
47742;BME280;33504;52.066;6.096;2022-11-11T07:03:31;102833.86;;;11.25;51.92
47742;BME280;33504;52.066;6.096;2022-11-11T07:06:00;102832.87;;;11.27;51.68
47742;BME280;33504;52.066;6.096;2022-11-11T07:08:27;102824.42;;;11.35;51.61
47742;BME280;33504;52.066;6.096;2022-11-11T07:10:55;102818.33;;;11.62;51.10
47742;BME280;33504;52.066;6.096;2022-11-11T07:13:21;102821.53;;;11.75;50.96
47742;BME280;33504;52.066;6.096;2022-11-11T07:15:49;102823.54;;;11.23;51.57
47742;BME280;33504;52.066;6.096;2022-11-11T07:18:16;102824.18;;;11.14;51.84
47742;BME280;33504;52.066;6.096;2022-11-11T07:20:44;102826.22;;;11.28;51.52
47742;BME280;33504;52.066;6.096;2022-11-11T07:23:11;102829.36;;;11.52;50.98
47742;BME280;33504;52.066;6.096;2022-11-11T07:25:38;102836.44;;;11.45;50.95
47742;BME280;33504;52.066;6.096;2022-11-11T07:28:04;102834.18;;;11.09;51.00
47742;BME280;33504;52.066;6.096;2022-11-11T07:30:32;102836.82;;;10.95;51.49
47742;BME280;33504;52.066;6.096;2022-11-11T07:32:59;102843.90;;;10.88;51.92
47742;BME280;33504;52.066;6.096;2022-11-11T07:35:25;102845.17;;;10.73;51.64
47742;BME280;33504;52.066;6.096;2022-11-11T07:37:53;102842.18;;;10.96;51.25
47742;BME280;33504;52.066;6.096;2022-11-11T07:40:19;102849.71;;;10.58;51.56
47742;BME280;33504;52.066;6.096;2022-11-11T07:42:46;102842.52;;;10.26;51.95
47742;BME280;33504;52.066;6.096;2022-11-11T07:45:13;102850.26;;;10.05;53.15
47742;BME280;33504;52.066;6.096;2022-11-11T07:47:42;102844.39;;;10.58;52.25
47742;BME280;33504;52.066;6.096;2022-11-11T07:50:11;102844.30;;;10.70;51.78
47742;BME280;33504;52.066;6.096;2022-11-11T07:52:39;102847.44;;;10.31;52.37
47742;BME280;33504;52.066;6.096;2022-11-11T07:55:06;102852.14;;;10.89;51.79
47742;BME280;33504;52.066;6.096;2022-11-11T07:57:34;102857.64;;;10.66;51.49
47742;BME280;33504;52.066;6.096;2022-11-11T08:00:03;102858.86;;;10.70;51.44
47742;BME280;33504;52.066;6.096;2022-11-11T08:02:30;102861.30;;;10.92;51.09
47742;BME280;33504;52.066;6.096;2022-11-11T08:04:57;102868.64;;;10.71;50.89
47742;BME280;33504;52.066;6.096;2022-11-11T08:07:24;102870.02;;;10.60;51.12
47742;BME280;33504;52.066;6.096;2022-11-11T08:09:51;102868.73;;;10.83;50.64
47742;BME280;33504;52.066;6.096;2022-11-11T08:12:19;102869.07;;;10.42;51.26
47742;BME280;33504;52.066;6.096;2022-11-11T08:14:45;102878.52;;;10.65;50.94
47742;BME280;33504;52.066;6.096;2022-11-11T08:17:12;102888.00;;;10.65;50.52
47742;BME280;33504;52.066;6.096;2022-11-11T08:19:39;102889.83;;;10.81;50.22
47742;BME280;33504;52.066;6.096;2022-11-11T08:22:07;102890.02;;;10.73;50.21
47742;BME280;33504;52.066;6.096;2022-11-11T08:24:34;102884.76;;;10.69;50.12
47742;BME280;33504;52.066;6.096;2022-11-11T08:27:01;102887.80;;;10.74;50.27
47742;BME280;33504;52.066;6.096;2022-11-11T08:29:28;102882.88;;;10.98;50.06
47742;BME280;33504;52.066;6.096;2022-11-11T08:31:55;102881.95;;;10.59;50.58
47742;BME280;33504;52.066;6.096;2022-11-11T08:34:22;102887.51;;;10.62;50.56
47742;BME280;33504;52.066;6.096;2022-11-11T08:36:48;102882.84;;;9.99;51.85
47742;BME280;33504;52.066;6.096;2022-11-11T08:39:16;102891.28;;;10.18;51.34
47742;BME280;33504;52.066;6.096;2022-11-11T08:41:43;102896.21;;;10.24;51.19
47742;BME280;33504;52.066;6.096;2022-11-11T08:44:11;102893.42;;;10.13;51.41
47742;BME280;33504;52.066;6.096;2022-11-11T08:46:38;102897.19;;;10.72;50.42
47742;BME280;33504;52.066;6.096;2022-11-11T08:49:05;102891.04;;;10.57;50.66
47742;BME280;33504;52.066;6.096;2022-11-11T08:51:32;102889.61;;;10.64;50.55
47742;BME280;33504;52.066;6.096;2022-11-11T08:53:59;102895.72;;;11.13;49.74
47742;BME280;33504;52.066;6.096;2022-11-11T08:56:26;102898.66;;;10.08;51.35
47742;BME280;33504;52.066;6.096;2022-11-11T08:58:53;102890.90;;;10.48;50.62
47742;BME280;33504;52.066;6.096;2022-11-11T09:01:20;102891.39;;;10.68;50.34
47742;BME280;33504;52.066;6.096;2022-11-11T09:03:48;102898.29;;;10.85;50.10
47742;BME280;33504;52.066;6.096;2022-11-11T09:06:15;102902.25;;;11.46;49.16
47742;BME280;33504;52.066;6.096;2022-11-11T09:08:43;102900.19;;;10.41;49.86
47742;BME280;33504;52.066;6.096;2022-11-11T09:11:10;102902.75;;;11.14;49.28
47742;BME280;33504;52.066;6.096;2022-11-11T09:13:37;102904.70;;;10.88;49.23
47742;BME280;33504;52.066;6.096;2022-11-11T09:16:05;102909.76;;;10.95;49.02
47742;BME280;33504;52.066;6.096;2022-11-11T09:18:32;102914.17;;;11.62;47.90
47742;BME280;33504;52.066;6.096;2022-11-11T09:21:00;102912.35;;;11.53;48.06
47742;BME280;33504;52.066;6.096;2022-11-11T09:23:26;102918.40;;;11.41;48.00
47742;BME280;33504;52.066;6.096;2022-11-11T09:25:54;102919.77;;;11.57;47.72
47742;BME280;33504;52.066;6.096;2022-11-11T09:28:20;102920.32;;;11.95;47.20
47742;BME280;33504;52.066;6.096;2022-11-11T09:30:47;102922.62;;;12.11;47.03
47742;BME280;33504;52.066;6.096;2022-11-11T09:33:15;102919.31;;;11.95;46.83
47742;BME280;33504;52.066;6.096;2022-11-11T09:35:42;102921.45;;;12.01;47.17
47742;BME280;33504;52.066;6.096;2022-11-11T09:38:10;102922.24;;;11.94;47.20
47742;BME280;33504;52.066;6.096;2022-11-11T09:40:48;102926.82;;;11.86;47.07
47742;BME280;33504;52.066;6.096;2022-11-11T09:43:27;102927.94;;;11.52;47.57
47742;BME280;33504;52.066;6.096;2022-11-11T09:46:10;102928.31;;;11.78;47.26
47742;BME280;33504;52.066;6.096;2022-11-11T09:48:53;102928.01;;;11.86;46.78
47742;BME280;33504;52.066;6.096;2022-11-11T09:51:27;102929.86;;;12.52;46.14
47742;BME280;33504;52.066;6.096;2022-11-11T09:54:00;102930.67;;;12.62;45.82
47742;BME280;33504;52.066;6.096;2022-11-11T09:56:31;102928.21;;;12.60;45.63
47742;BME280;33504;52.066;6.096;2022-11-11T09:59:02;102928.02;;;13.31;44.64
47742;BME280;33504;52.066;6.096;2022-11-11T10:01:36;102931.60;;;13.48;44.18
47742;BME280;33504;52.066;6.096;2022-11-11T10:04:16;102924.52;;;13.81;43.41
47742;BME280;33504;52.066;6.096;2022-11-11T10:06:46;102925.51;;;14.40;42.43
47742;BME280;33504;52.066;6.096;2022-11-11T10:09:19;102935.80;;;14.74;41.14
47742;BME280;33504;52.066;6.096;2022-11-11T10:11:52;102937.98;;;15.05;40.74
47742;BME280;33504;52.066;6.096;2022-11-11T10:14:24;102939.56;;;15.43;40.30
47742;BME280;33504;52.066;6.096;2022-11-11T10:17:01;102941.00;;;15.63;39.64
47742;BME280;33504;52.066;6.096;2022-11-11T10:19:34;102948.17;;;16.32;38.42
47742;BME280;33504;52.066;6.096;2022-11-11T10:22:18;102949.19;;;16.54;38.22
47742;BME280;33504;52.066;6.096;2022-11-11T10:24:50;102944.62;;;16.89;37.92
47742;BME280;33504;52.066;6.096;2022-11-11T10:27:21;102943.23;;;17.08;37.36
47742;BME280;33504;52.066;6.096;2022-11-11T10:29:49;102940.41;;;16.96;37.00
47742;BME280;33504;52.066;6.096;2022-11-11T10:32:19;102941.84;;;17.48;36.54
47742;BME280;33504;52.066;6.096;2022-11-11T10:34:47;102940.76;;;16.99;37.02
47742;BME280;33504;52.066;6.096;2022-11-11T10:37:18;102942.06;;;16.90;36.70
47742;BME280;33504;52.066;6.096;2022-11-11T10:39:57;102939.91;;;17.45;36.62
47742;BME280;33504;52.066;6.096;2022-11-11T10:42:26;102938.22;;;17.49;36.17
47742;BME280;33504;52.066;6.096;2022-11-11T10:44:58;102929.70;;;18.24;35.59
47742;BME280;33504;52.066;6.096;2022-11-11T10:47:34;102926.54;;;18.70;34.31
47742;BME280;33504;52.066;6.096;2022-11-11T10:50:08;102927.41;;;19.21;34.11
47742;BME280;33504;52.066;6.096;2022-11-11T10:52:42;102927.33;;;19.91;33.28
47742;BME280;33504;52.066;6.096;2022-11-11T10:55:14;102923.85;;;19.73;33.28
47742;BME280;33504;52.066;6.096;2022-11-11T10:57:46;102928.31;;;19.19;33.02
47742;BME280;33504;52.066;6.096;2022-11-11T11:00:16;102922.81;;;19.18;33.08
47742;BME280;33504;52.066;6.096;2022-11-11T11:02:50;102925.24;;;19.03;33.81
47742;BME280;33504;52.066;6.096;2022-11-11T11:05:23;102927.01;;;19.24;33.66
47742;BME280;33504;52.066;6.096;2022-11-11T11:07:54;102923.22;;;19.39;33.44
47742;BME280;33504;52.066;6.096;2022-11-11T11:10:27;102929.12;;;18.89;34.00
47742;BME280;33504;52.066;6.096;2022-11-11T11:13:02;102932.03;;;18.57;34.17
47742;BME280;33504;52.066;6.096;2022-11-11T11:15:32;102928.93;;;18.25;34.79
47742;BME280;33504;52.066;6.096;2022-11-11T11:18:04;102924.82;;;18.49;34.95
47742;BME280;33504;52.066;6.096;2022-11-11T11:20:33;102920.96;;;18.61;35.04
47742;BME280;33504;52.066;6.096;2022-11-11T11:23:00;102922.15;;;17.69;35.70
47742;BME280;33504;52.066;6.096;2022-11-11T11:25:29;102917.82;;;17.68;35.83
47742;BME280;33504;52.066;6.096;2022-11-11T11:28:06;102915.63;;;18.02;35.62
47742;BME280;33504;52.066;6.096;2022-11-11T11:30:33;102909.74;;;18.55;35.41
47742;BME280;33504;52.066;6.096;2022-11-11T11:33:01;102915.76;;;18.69;35.19
47742;BME280;33504;52.066;6.096;2022-11-11T11:35:31;102912.71;;;18.32;35.17
47742;BME280;33504;52.066;6.096;2022-11-11T11:37:59;102911.27;;;18.85;34.98
47742;BME280;33504;52.066;6.096;2022-11-11T11:40:26;102915.70;;;19.03;34.73
47742;BME280;33504;52.066;6.096;2022-11-11T11:43:24;102909.12;;;18.51;35.06
47742;BME280;33504;52.066;6.096;2022-11-11T11:45:56;102911.60;;;17.86;35.92
47742;BME280;33504;52.066;6.096;2022-11-11T11:48:34;102910.10;;;17.82;36.17
47742;BME280;33504;52.066;6.096;2022-11-11T11:51:19;102903.84;;;17.93;36.06
47742;BME280;33504;52.066;6.096;2022-11-11T11:54:02;102902.56;;;18.13;35.98
47742;BME280;33504;52.066;6.096;2022-11-11T11:56:38;102902.65;;;17.24;36.90
47742;BME280;33504;52.066;6.096;2022-11-11T11:59:12;102908.35;;;16.60;37.60
47742;BME280;33504;52.066;6.096;2022-11-11T12:01:50;102903.90;;;17.24;37.45
47742;BME280;33504;52.066;6.096;2022-11-11T12:04:44;102907.59;;;16.67;38.03
47742;BME280;33504;52.066;6.096;2022-11-11T12:07:28;102906.02;;;16.58;38.60
47742;BME280;33504;52.066;6.096;2022-11-11T12:10:04;102909.86;;;15.62;39.60
47742;BME280;33504;52.066;6.096;2022-11-11T12:12:41;102902.09;;;15.78;39.49
47742;BME280;33504;52.066;6.096;2022-11-11T12:15:20;102905.38;;;15.42;40.56
47742;BME280;33504;52.066;6.096;2022-11-11T12:17:58;102906.49;;;15.35;40.45
47742;BME280;33504;52.066;6.096;2022-11-11T12:20:40;102904.86;;;15.09;40.48
47742;BME280;33504;52.066;6.096;2022-11-11T12:23:22;102904.66;;;15.78;40.08
47742;BME280;33504;52.066;6.096;2022-11-11T12:26:06;102902.65;;;15.55;39.96
47742;BME280;33504;52.066;6.096;2022-11-11T12:28:47;102904.57;;;15.14;40.81
47742;BME280;33504;52.066;6.096;2022-11-11T12:31:27;102905.53;;;15.50;40.15
47742;BME280;33504;52.066;6.096;2022-11-11T12:34:07;102901.63;;;15.60;40.19
47742;BME280;33504;52.066;6.096;2022-11-11T12:36:42;102904.86;;;15.26;40.15
47742;BME280;33504;52.066;6.096;2022-11-11T12:39:25;102899.27;;;15.65;39.80
47742;BME280;33504;52.066;6.096;2022-11-11T12:42:05;102899.06;;;14.89;40.64
47742;BME280;33504;52.066;6.096;2022-11-11T12:44:40;102894.61;;;15.42;40.37
47742;BME280;33504;52.066;6.096;2022-11-11T12:47:23;102892.40;;;15.49;39.72
47742;BME280;33504;52.066;6.096;2022-11-11T12:49:57;102890.25;;;15.77;39.11
47742;BME280;33504;52.066;6.096;2022-11-11T12:52:41;102887.97;;;15.76;39.27
47742;BME280;33504;52.066;6.096;2022-11-11T12:55:18;102884.78;;;16.25;38.96
47742;BME280;33504;52.066;6.096;2022-11-11T12:57:59;102881.57;;;16.30;38.70
47742;BME280;33504;52.066;6.096;2022-11-11T13:00:31;102879.27;;;16.74;37.66
47742;BME280;33504;52.066;6.096;2022-11-11T13:03:11;102878.89;;;16.85;36.98